createdAt,value
2022-08-17T00:02:26.100Z,95022.81
2022-08-17T00:04:54.487Z,95040.34
2022-08-17T00:07:21.688Z,95049.56
2022-08-17T00:09:48.885Z,95061.06
2022-08-17T00:12:43.786Z,95050.53
2022-08-17T00:15:04.065Z,95054.19
2022-08-17T00:17:32.768Z,95060.53
2022-08-17T00:20:00.645Z,95067.78
2022-08-17T00:22:33.213Z,95068.38
2022-08-17T00:25:06.826Z,95074.94
2022-08-17T00:27:34.128Z,95086.16
2022-08-17T00:30:02.486Z,95087.56
2022-08-17T00:33:14.716Z,95082.75
2022-08-17T00:35:22.465Z,95092.78
2022-08-17T00:37:49.846Z,95079.38
2022-08-17T00:40:17.964Z,95087.56
2022-08-17T00:42:47.165Z,95091.34
2022-08-17T00:45:17.045Z,95078.88
2022-08-17T00:47:44.668Z,95076.19
2022-08-17T00:50:15.269Z,95073.66
2022-08-17T00:52:52.284Z,95076.19
2022-08-17T00:55:20.945Z,95070.00
2022-08-17T00:57:55.603Z,95064.66
2022-08-17T01:00:27.747Z,95059.91
2022-08-17T01:02:59.084Z,95068.44
2022-08-17T01:05:30.046Z,95068.13
2022-08-17T01:08:00.507Z,95082.16
2022-08-17T01:10:58.625Z,95077.09
2022-08-17T01:13:26.245Z,95085.63
2022-08-17T01:15:57.686Z,95087.41
2022-08-17T01:18:26.305Z,95079.94
2022-08-17T01:20:56.386Z,95082.69
2022-08-17T01:23:26.568Z,95088.66
2022-08-17T01:25:56.166Z,95091.78
2022-08-17T01:28:33.473Z,95084.81
2022-08-17T01:31:15.086Z,95090.09
2022-08-17T01:33:42.486Z,95096.06
2022-08-17T01:36:10.545Z,95104.72
2022-08-17T01:38:39.485Z,95094.78
2022-08-17T01:41:10.686Z,95103.75
2022-08-17T01:43:45.265Z,95110.69
2022-08-17T01:46:18.787Z,95110.75
2022-08-17T01:48:45.945Z,95102.84
2022-08-17T01:51:14.246Z,95110.00
2022-08-17T01:53:48.506Z,95100.16
2022-08-17T01:56:18.610Z,95099.25
2022-08-17T01:58:46.965Z,95089.75
2022-08-17T02:01:17.260Z,95087.50
2022-08-17T02:03:53.173Z,95086.72
2022-08-17T02:06:28.473Z,95092.56
2022-08-17T02:09:02.754Z,95093.16
2022-08-17T02:11:33.765Z,95093.59
2022-08-17T02:14:03.686Z,95100.75
2022-08-17T02:16:37.405Z,95091.81
2022-08-17T02:19:08.427Z,95090.84
2022-08-17T02:21:37.206Z,95103.13
2022-08-17T02:24:10.206Z,95101.66
2022-08-17T02:26:37.665Z,95108.13
2022-08-17T02:29:04.989Z,95113.88
2022-08-17T02:31:32.265Z,95128.97
2022-08-17T02:34:03.951Z,95118.69
2022-08-17T02:36:34.507Z,95131.09
2022-08-17T02:39:02.148Z,95114.63
2022-08-17T02:41:30.904Z,95106.97
2022-08-17T02:43:58.105Z,95093.16
2022-08-17T02:46:25.404Z,95066.41
2022-08-17T02:48:52.646Z,95047.06
2022-08-17T02:51:19.965Z,95024.09
2022-08-17T02:53:47.127Z,95033.09
2022-08-17T02:56:14.564Z,95039.63
2022-08-17T02:58:43.145Z,95032.41
2022-08-17T03:01:11.311Z,95028.34
2022-08-17T03:03:40.805Z,95014.66
2022-08-17T03:06:08.993Z,95016.94
2022-08-17T03:08:36.228Z,95023.75
2022-08-17T03:11:03.424Z,95036.34
2022-08-17T03:13:30.674Z,95033.97
2022-08-17T03:15:59.326Z,95025.13
2022-08-17T03:18:26.551Z,95023.41
2022-08-17T03:20:55.607Z,95024.97
2022-08-17T03:23:24.128Z,95016.38
2022-08-17T03:25:53.613Z,95011.34
2022-08-17T03:28:22.327Z,95008.47
2022-08-17T03:30:49.665Z,94999.34
2022-08-17T03:33:18.989Z,94991.22
2022-08-17T03:35:47.026Z,94982.50
2022-08-17T03:38:15.085Z,94977.25
2022-08-17T03:40:56.328Z,94972.47
2022-08-17T03:43:31.227Z,94968.72
2022-08-17T03:45:59.966Z,94969.53
2022-08-17T03:48:28.925Z,94966.84
2022-08-17T03:50:57.189Z,94960.78
2022-08-17T03:53:24.344Z,94952.38
2022-08-17T03:55:51.465Z,94952.38
2022-08-17T03:58:18.685Z,94961.47
2022-08-17T04:00:46.046Z,94971.16
2022-08-17T04:03:14.185Z,94974.25
2022-08-17T04:05:43.366Z,94974.63
2022-08-17T04:08:10.986Z,94971.47
2022-08-17T04:10:44.944Z,94978.47
2022-08-17T04:13:13.386Z,94992.84
2022-08-17T04:15:40.848Z,94998.00
2022-08-17T04:18:08.307Z,94992.66
2022-08-17T04:20:38.385Z,94994.66
2022-08-17T04:23:11.647Z,94989.00
2022-08-17T04:25:43.168Z,94986.25
2022-08-17T04:28:16.283Z,94991.31
2022-08-17T04:30:45.304Z,94977.63
2022-08-17T04:33:15.376Z,94967.94
2022-08-17T04:35:45.286Z,94970.72
2022-08-17T04:38:17.006Z,94968.91
2022-08-17T04:40:44.746Z,94963.69
2022-08-17T04:43:15.088Z,94964.44
2022-08-17T04:45:55.515Z,94967.75
2022-08-17T04:48:32.253Z,94974.97
2022-08-17T04:51:08.686Z,94982.41
2022-08-17T04:53:38.746Z,94989.63
2022-08-17T04:56:06.608Z,94982.78
2022-08-17T04:58:33.825Z,94992.47
2022-08-17T05:01:01.115Z,94998.31
2022-08-17T05:03:28.391Z,95002.75
2022-08-17T05:05:55.644Z,95001.16
2022-08-17T05:08:22.966Z,94998.31
2022-08-17T05:10:51.545Z,94991.78
2022-08-17T05:13:20.928Z,94994.81
2022-08-17T05:15:49.971Z,94996.00
2022-08-17T05:18:17.666Z,95001.84
2022-08-17T05:20:45.390Z,95004.41
2022-08-17T05:23:15.389Z,95005.91
2022-08-17T05:25:47.750Z,95006.34
2022-08-17T05:28:19.226Z,95010.75
2022-08-17T05:30:51.407Z,95020.47
2022-08-17T05:33:21.048Z,95039.41
2022-08-17T05:35:50.851Z,95033.09
2022-08-17T05:38:21.047Z,95035.47
2022-08-17T05:40:49.285Z,95033.38
2022-08-17T05:43:22.109Z,95037.06
2022-08-17T05:46:13.508Z,95043.81
2022-08-17T05:48:44.525Z,95046.38
2022-08-17T05:51:37.948Z,95057.53
2022-08-17T05:54:25.106Z,95057.34
2022-08-17T05:57:07.585Z,95066.09
2022-08-17T05:59:51.788Z,95074.44
2022-08-17T06:02:29.825Z,95072.84
2022-08-17T06:05:14.947Z,95069.56
2022-08-17T06:07:52.226Z,95069.69
2022-08-17T06:10:35.226Z,95076.81
2022-08-17T06:13:17.207Z,95069.88
2022-08-17T06:15:56.666Z,95078.72
2022-08-17T06:18:29.233Z,95097.22
2022-08-17T06:21:02.168Z,95087.50
2022-08-17T06:23:37.445Z,95099.22
2022-08-17T06:26:12.906Z,95107.06
2022-08-17T06:28:50.429Z,95101.03
2022-08-17T06:31:24.186Z,95108.81
2022-08-17T06:33:51.388Z,95105.63
2022-08-17T06:36:42.588Z,95105.59
2022-08-17T06:39:35.116Z,95100.13
2022-08-17T06:42:59.945Z,95101.91
2022-08-17T06:45:10.646Z,95096.22
2022-08-17T06:47:47.249Z,95097.13
2022-08-17T06:50:21.885Z,95098.94
2022-08-17T06:52:56.990Z,95098.25
2022-08-17T06:55:41.951Z,95111.19
2022-08-17T06:58:16.686Z,95116.38
2022-08-17T07:00:49.079Z,95126.63
2022-08-17T07:03:32.055Z,95121.28
2022-08-17T07:06:05.808Z,95121.41
2022-08-17T07:08:49.388Z,95114.84
2022-08-17T07:11:20.928Z,95115.66
2022-08-17T07:14:03.345Z,95113.47
2022-08-17T07:16:39.605Z,95114.84
2022-08-17T07:19:10.867Z,95114.00
2022-08-17T07:21:52.368Z,95117.00
2022-08-17T07:24:33.143Z,95129.91
2022-08-17T07:27:14.906Z,95142.38
2022-08-17T07:29:48.066Z,95139.13
2022-08-17T07:32:20.546Z,95142.97
2022-08-17T07:35:12.085Z,95138.72
2022-08-17T07:37:45.968Z,95132.53
2022-08-17T07:40:24.084Z,95119.69
2022-08-17T07:43:03.247Z,95116.56
2022-08-17T07:45:33.966Z,95109.56
2022-08-17T07:48:01.348Z,95106.84
2022-08-17T07:50:30.346Z,95106.56
2022-08-17T07:52:57.588Z,95110.03
2022-08-17T07:55:30.627Z,95112.59
2022-08-17T07:57:59.287Z,95121.72
2022-08-17T08:00:31.783Z,95118.47
2022-08-17T08:03:20.169Z,95125.69
2022-08-17T08:05:56.670Z,95135.28
2022-08-17T08:08:32.569Z,95139.19
2022-08-17T08:11:04.848Z,95132.13
2022-08-17T08:13:33.449Z,95142.25
2022-08-17T08:16:23.167Z,95133.03
2022-08-17T08:18:56.732Z,95133.59
2022-08-17T08:21:42.811Z,95126.28
2022-08-17T08:24:34.228Z,95130.25
2022-08-17T08:27:14.716Z,95126.34
2022-08-17T08:29:53.066Z,95132.84
2022-08-17T08:32:32.766Z,95137.78
2022-08-17T08:35:08.072Z,95142.13
2022-08-17T08:37:47.790Z,95150.28
2022-08-17T08:40:41.169Z,95144.94
2022-08-17T08:43:21.767Z,95139.44
2022-08-17T08:45:59.592Z,95127.16
2022-08-17T08:49:04.911Z,95134.78
2022-08-17T08:51:51.785Z,95131.28
2022-08-17T08:54:35.452Z,95138.88
2022-08-17T08:57:25.422Z,95143.78
2022-08-17T09:00:07.090Z,95132.50
2022-08-17T09:02:57.148Z,95133.31
2022-08-17T09:05:38.448Z,95134.00
2022-08-17T09:08:20.867Z,95132.50
2022-08-17T09:11:05.127Z,95124.25
2022-08-17T09:13:45.826Z,95121.84
2022-08-17T09:16:27.987Z,95117.03
2022-08-17T09:19:04.516Z,95114.78
2022-08-17T09:21:41.475Z,95115.97
2022-08-17T09:24:25.109Z,95122.66
2022-08-17T09:27:02.954Z,95119.06
2022-08-17T09:29:33.587Z,95137.81
2022-08-17T09:32:04.000Z,95133.78
2022-08-17T09:34:38.167Z,95138.53
2022-08-17T09:37:22.552Z,95134.50
2022-08-17T09:40:00.672Z,95126.94
2022-08-17T09:42:37.870Z,95116.00
2022-08-17T09:45:24.138Z,95120.88
2022-08-17T09:47:58.106Z,95116.59
2022-08-17T09:50:55.304Z,95122.63
2022-08-17T09:53:20.832Z,95129.91
2022-08-17T09:56:09.027Z,95129.31
2022-08-17T09:58:56.968Z,95125.50
2022-08-17T10:01:32.959Z,95128.06
2022-08-17T10:04:20.350Z,95124.34
2022-08-17T10:06:57.948Z,95123.53
2022-08-17T10:09:41.927Z,95122.53
2022-08-17T10:12:21.931Z,95123.34
2022-08-17T10:15:15.847Z,95129.28
2022-08-17T10:18:09.706Z,95122.72
2022-08-17T10:20:49.687Z,95116.75
2022-08-17T10:23:26.627Z,95113.66
2022-08-17T10:26:06.065Z,95118.41
2022-08-17T10:28:43.078Z,95118.03
2022-08-17T10:31:36.660Z,95109.09
2022-08-17T10:34:40.377Z,95100.78
2022-08-17T10:37:27.166Z,95094.44
2022-08-17T10:40:12.262Z,95099.06
2022-08-17T10:42:49.347Z,95101.47
2022-08-17T10:45:20.289Z,95083.59
2022-08-17T10:48:02.765Z,95081.28
2022-08-17T10:50:59.527Z,95073.88
2022-08-17T10:53:52.586Z,95066.78
2022-08-17T10:56:45.107Z,95066.16
2022-08-17T10:59:49.089Z,95071.69
2022-08-17T11:02:25.486Z,95072.28
2022-08-17T11:05:11.946Z,95073.13
2022-08-17T11:07:59.768Z,95060.72
2022-08-17T11:10:52.094Z,95060.84
2022-08-17T11:13:34.354Z,95054.41
2022-08-17T11:16:29.828Z,95058.59
2022-08-17T11:19:25.846Z,95049.94
2022-08-17T11:22:36.805Z,95055.72
2022-08-17T11:25:16.907Z,95057.47
2022-08-17T11:27:48.648Z,95059.19
2022-08-17T11:30:43.632Z,95064.22
2022-08-17T11:33:53.005Z,95069.72
2022-08-17T11:36:48.124Z,95064.59
2022-08-17T11:39:59.673Z,95063.44
2022-08-17T11:42:44.530Z,95062.66
2022-08-17T11:45:33.236Z,95062.03
2022-08-17T11:48:27.996Z,95050.56
2022-08-17T11:51:11.925Z,95040.75
2022-08-17T11:54:31.015Z,95035.94
2022-08-17T11:56:51.609Z,95030.72
2022-08-17T11:59:58.760Z,95027.03
2022-08-17T12:02:38.934Z,95038.41
2022-08-17T12:05:36.405Z,95015.78
2022-08-17T12:08:19.226Z,95016.56
2022-08-17T12:11:01.646Z,95016.13
2022-08-17T12:13:38.700Z,95007.31
2022-08-17T12:16:08.786Z,95004.81
2022-08-17T12:18:37.745Z,95001.63
2022-08-17T12:21:19.546Z,94988.91
2022-08-17T12:23:57.066Z,94984.13
2022-08-17T12:26:30.388Z,94988.19
2022-08-17T12:29:02.611Z,95001.00
2022-08-17T12:31:34.645Z,94995.06
2022-08-17T12:34:04.007Z,94989.06
2022-08-17T12:36:33.668Z,94989.19
2022-08-17T12:39:14.139Z,94982.34
2022-08-17T12:41:45.095Z,94982.94
2022-08-17T12:44:18.146Z,94971.81
2022-08-17T12:46:50.271Z,94969.56
2022-08-17T12:49:26.268Z,94965.31
2022-08-17T12:52:06.346Z,94963.72
2022-08-17T12:54:46.667Z,94960.94
2022-08-17T12:57:18.626Z,94941.13
2022-08-17T12:59:52.606Z,94941.97
2022-08-17T13:02:26.406Z,94933.56
2022-08-17T13:04:53.846Z,94927.72
2022-08-17T13:07:34.952Z,94919.41
2022-08-17T13:10:03.324Z,94912.13
2022-08-17T13:12:33.986Z,94910.00
2022-08-17T13:15:02.808Z,94914.66
2022-08-17T13:17:34.109Z,94918.09
2022-08-17T13:20:03.049Z,94900.97
2022-08-17T13:22:30.982Z,94896.50
2022-08-17T13:25:01.587Z,94897.84
2022-08-17T13:27:31.049Z,94892.44
2022-08-17T13:30:01.367Z,94897.81
2022-08-17T13:32:43.653Z,94898.47
2022-08-17T13:35:42.947Z,94890.13
2022-08-17T13:38:15.463Z,94884.38
2022-08-17T13:40:47.265Z,94890.06
2022-08-17T13:43:39.445Z,94892.75
2022-08-17T13:46:12.706Z,94896.41
2022-08-17T13:48:41.345Z,94899.41
2022-08-17T13:51:33.772Z,94910.88
2022-08-17T13:54:07.095Z,94921.56
2022-08-17T13:56:40.485Z,94911.47
2022-08-17T13:59:13.250Z,94915.94
2022-08-17T14:01:43.777Z,94911.81
2022-08-17T14:04:15.927Z,94919.78
2022-08-17T14:06:52.344Z,94914.38
2022-08-17T14:09:25.824Z,94906.63
2022-08-17T14:11:56.885Z,94908.56
2022-08-17T14:14:25.004Z,94901.38
2022-08-17T14:16:53.374Z,94901.53
2022-08-17T14:19:22.011Z,94906.25
2022-08-17T14:21:50.584Z,94906.25
2022-08-17T14:24:24.586Z,94891.25
2022-08-17T14:26:52.786Z,94897.41
2022-08-17T14:29:21.324Z,94893.97
2022-08-17T14:31:53.485Z,94889.34
2022-08-17T14:34:23.705Z,94876.84
2022-08-17T14:36:51.530Z,94872.59
2022-08-17T14:39:20.172Z,94875.00
2022-08-17T14:41:47.456Z,94875.56
2022-08-17T14:44:14.988Z,94883.91
2022-08-17T14:46:43.967Z,94883.78
2022-08-17T14:49:13.284Z,94876.78
2022-08-17T14:51:44.215Z,94873.50
2022-08-17T14:54:11.987Z,94870.75
2022-08-17T14:57:23.239Z,94873.16
2022-08-17T14:59:46.487Z,94863.25
2022-08-17T15:02:13.752Z,94861.75
2022-08-17T15:04:45.589Z,94856.63
2022-08-17T15:07:15.231Z,94852.16
2022-08-17T15:09:42.447Z,94846.69
2022-08-17T15:12:16.724Z,94850.94
2022-08-17T15:14:44.029Z,94845.09
2022-08-17T15:17:11.987Z,94848.09
2022-08-17T15:19:39.207Z,94842.00
2022-08-17T15:22:06.586Z,94840.09
2022-08-17T15:24:35.169Z,94820.31
2022-08-17T15:27:02.326Z,94823.25
2022-08-17T15:29:29.946Z,94813.94
2022-08-17T15:32:00.593Z,94817.84
2022-08-17T15:34:28.045Z,94828.56
2022-08-17T15:36:55.208Z,94818.13
2022-08-17T15:39:22.308Z,94802.13
2022-08-17T15:41:58.517Z,94811.03
2022-08-17T15:44:32.479Z,94802.59
2022-08-17T15:47:02.195Z,94802.34
2022-08-17T15:49:29.348Z,94812.00
2022-08-17T15:51:56.407Z,94793.38
2022-08-17T15:54:23.809Z,94778.25
2022-08-17T15:56:52.371Z,94766.31
2022-08-17T15:59:19.426Z,94755.13
2022-08-17T16:03:15.877Z,94754.69
2022-08-17T16:04:33.839Z,94749.97
2022-08-17T16:07:01.040Z,94768.69
2022-08-17T16:09:28.237Z,94786.88
2022-08-17T16:11:56.858Z,94790.38
2022-08-17T16:14:24.385Z,94817.19
2022-08-17T16:16:52.307Z,94823.81
2022-08-17T16:19:19.427Z,94813.72
2022-08-17T16:21:46.583Z,94812.81
2022-08-17T16:24:14.961Z,94813.09
2022-08-17T16:26:42.669Z,94832.22
2022-08-17T16:29:11.287Z,94876.25
2022-08-17T16:31:38.970Z,94943.41
2022-08-17T16:34:17.717Z,95021.47
2022-08-17T16:36:53.752Z,95052.88
2022-08-17T16:39:25.025Z,95088.88
2022-08-17T16:41:52.194Z,95134.34
2022-08-17T16:44:22.049Z,95182.25
2022-08-17T16:46:49.428Z,95216.06
2022-08-17T16:49:24.372Z,95183.19
2022-08-17T16:52:06.709Z,95222.09
2022-08-17T16:54:33.846Z,95235.50
2022-08-17T16:57:00.944Z,95256.66
2022-08-17T16:59:38.859Z,95253.84
2022-08-17T17:02:10.533Z,95256.94
2022-08-17T17:04:45.489Z,95259.16
2022-08-17T17:07:33.948Z,95236.31
2022-08-17T17:10:07.746Z,95224.66
2022-08-17T17:13:02.639Z,95234.28
2022-08-17T17:15:30.586Z,95242.81
2022-08-17T17:18:06.930Z,95265.88
2022-08-17T17:20:47.718Z,95276.47
2022-08-17T17:23:34.545Z,95277.22
2022-08-17T17:26:13.747Z,95291.63
2022-08-17T17:28:55.845Z,95297.09
2022-08-17T17:31:32.828Z,95314.88
2022-08-17T17:34:04.569Z,95321.94
2022-08-17T17:36:40.146Z,95313.91
2022-08-17T17:39:14.225Z,95311.09
2022-08-17T17:41:49.005Z,95306.09
2022-08-17T17:44:24.084Z,95314.94
2022-08-17T17:46:57.865Z,95321.00
2022-08-17T17:49:31.385Z,95335.50
2022-08-17T17:52:13.123Z,95352.44
2022-08-17T17:54:57.487Z,95359.38
2022-08-17T17:57:38.367Z,95363.19
2022-08-17T18:00:14.905Z,95367.66
2022-08-17T18:03:09.590Z,95373.19
2022-08-17T18:06:07.745Z,95386.19
2022-08-17T18:08:50.326Z,95387.41
2022-08-17T18:11:36.068Z,95389.50
2022-08-17T18:14:20.772Z,95392.50
2022-08-17T18:16:55.570Z,95389.09
2022-08-17T18:19:26.946Z,95382.69
2022-08-17T18:22:07.290Z,95387.03
2022-08-17T18:24:38.075Z,95391.38
2022-08-17T18:27:21.032Z,95386.31
2022-08-17T18:29:50.697Z,95395.44
2022-08-17T18:32:31.926Z,95398.09
2022-08-17T18:35:26.194Z,95390.09
2022-08-17T18:37:55.357Z,95393.00
2022-08-17T18:40:34.017Z,95381.78
2022-08-17T18:43:09.127Z,95388.47
2022-08-17T18:45:40.547Z,95398.28
2022-08-17T18:48:29.836Z,95420.06
2022-08-17T18:51:39.863Z,95441.06
2022-08-17T18:54:22.064Z,95438.66
2022-08-17T18:56:53.728Z,95432.50
2022-08-17T18:59:31.846Z,95433.25
2022-08-17T19:02:39.107Z,95449.72
2022-08-17T19:05:27.623Z,95460.28
2022-08-17T19:08:16.415Z,95446.78
2022-08-17T19:10:47.372Z,95449.13
2022-08-17T19:13:24.571Z,95438.94
2022-08-17T19:16:14.387Z,95448.03
2022-08-17T19:18:48.810Z,95444.69
2022-08-17T19:21:21.595Z,95447.09
2022-08-17T19:23:57.584Z,95437.97
2022-08-17T19:26:53.827Z,95436.00
2022-08-17T19:29:24.950Z,95439.38
2022-08-17T19:31:53.322Z,95430.78
2022-08-17T19:34:30.316Z,95431.50
2022-08-17T19:37:06.996Z,95432.66
2022-08-17T19:39:50.203Z,95438.81
2022-08-17T19:42:36.381Z,95449.66
2022-08-17T19:45:15.847Z,95462.72
2022-08-17T19:47:55.600Z,95469.56
2022-08-17T19:50:33.928Z,95462.19
2022-08-17T19:53:15.770Z,95453.63
2022-08-17T19:55:56.364Z,95452.63
2022-08-17T19:58:39.224Z,95467.28
2022-08-17T20:01:17.273Z,95462.28
2022-08-17T20:03:55.406Z,95462.00
2022-08-17T20:06:25.067Z,95455.06
2022-08-17T20:09:02.685Z,95442.75
2022-08-17T20:11:41.829Z,95436.16
2022-08-17T20:14:14.513Z,95427.75
2022-08-17T20:16:42.009Z,95414.16
2022-08-17T20:19:23.267Z,95411.06
2022-08-17T20:21:57.651Z,95410.84
2022-08-17T20:24:37.065Z,95398.28
2022-08-17T20:27:20.246Z,95386.06
2022-08-17T20:30:05.170Z,95392.28
2022-08-17T20:32:35.826Z,95390.06
2022-08-17T20:35:18.167Z,95392.47
2022-08-17T20:37:54.969Z,95396.31
2022-08-17T20:40:30.024Z,95401.53
2022-08-17T20:42:59.609Z,95401.22
2022-08-17T20:46:11.166Z,95387.56
2022-08-17T20:48:44.187Z,95369.66
2022-08-17T20:51:19.025Z,95361.94
2022-08-17T20:54:05.785Z,95356.06
2022-08-17T20:56:54.028Z,95350.91
2022-08-17T21:00:00.608Z,95355.47
2022-08-17T21:02:29.128Z,95358.44
2022-08-17T21:05:26.079Z,95361.34
2022-08-17T21:08:10.467Z,95351.81
2022-08-17T21:10:39.228Z,95362.25
2022-08-17T21:13:39.405Z,95361.53
2022-08-17T21:16:28.949Z,95356.66
2022-08-17T21:19:11.986Z,95368.38
2022-08-17T21:21:52.027Z,95372.06
2022-08-17T21:24:35.307Z,95367.50
2022-08-17T21:27:22.154Z,95368.28
2022-08-17T21:30:13.150Z,95355.09
2022-08-17T21:32:44.427Z,95356.38
2022-08-17T21:35:44.588Z,95351.31
2022-08-17T21:38:15.069Z,95345.44
2022-08-17T21:40:46.109Z,95336.09
2022-08-17T21:43:23.967Z,95339.41
2022-08-17T21:45:59.287Z,95341.28
2022-08-17T21:48:29.787Z,95338.41
2022-08-17T21:51:07.370Z,95303.94
2022-08-17T21:53:40.587Z,95280.09
2022-08-17T21:56:28.757Z,95252.47
2022-08-17T21:59:02.748Z,95243.94
2022-08-17T22:01:33.508Z,95262.28
2022-08-17T22:04:05.649Z,95299.50
2022-08-17T22:06:38.834Z,95327.00
2022-08-17T22:09:14.868Z,95346.47
2022-08-17T22:11:51.572Z,95353.31
2022-08-17T22:14:20.513Z,95352.97
2022-08-17T22:16:48.492Z,95346.03
2022-08-17T22:19:17.534Z,95352.38
2022-08-17T22:21:44.732Z,95343.25
2022-08-17T22:24:18.834Z,95342.66
2022-08-17T22:27:06.733Z,95348.81
2022-08-17T22:29:49.493Z,95357.53
2022-08-17T22:32:42.992Z,95349.22
2022-08-17T22:35:34.515Z,95344.50
2022-08-17T22:38:29.212Z,95336.47
2022-08-17T22:41:31.535Z,95332.19
2022-08-17T22:44:08.894Z,95336.34
2022-08-17T22:46:41.441Z,95331.19
2022-08-17T22:49:08.694Z,95331.66
2022-08-17T22:51:37.454Z,95326.66
2022-08-17T22:54:17.848Z,95320.25
2022-08-17T22:56:57.633Z,95317.53
2022-08-17T22:59:41.787Z,95320.28
2022-08-17T23:02:18.250Z,95311.66
2022-08-17T23:04:48.013Z,95316.97
2022-08-17T23:07:16.600Z,95323.25
2022-08-17T23:09:43.754Z,95324.41
2022-08-17T23:12:16.514Z,95333.22
2022-08-17T23:14:43.794Z,95332.06
2022-08-17T23:17:11.077Z,95338.41
2022-08-17T23:19:39.025Z,95342.84
2022-08-17T23:22:10.434Z,95349.38
2022-08-17T23:24:47.013Z,95346.28
2022-08-17T23:27:14.234Z,95344.97
2022-08-17T23:29:41.343Z,95349.56
2022-08-17T23:32:11.692Z,95360.00
2022-08-17T23:34:40.034Z,95355.47
2022-08-17T23:37:09.073Z,95356.22
2022-08-17T23:39:36.832Z,95346.88
2022-08-17T23:42:08.776Z,95341.75
2022-08-17T23:44:37.374Z,95336.97
2022-08-17T23:47:05.772Z,95330.84
2022-08-17T23:49:32.934Z,95331.50
2022-08-17T23:52:04.094Z,95336.19
2022-08-17T23:54:34.481Z,95334.84
2022-08-17T23:57:02.986Z,95342.50
2022-08-17T23:59:31.952Z,95336.06
